Time;durP1;ratioP1;P1;durP2;ratioP2;P2;SDS_P1;SDS_P2;PMS_P1;PMS_P2;Temp;Humidity;BMP_temperature;BMP_pressure;BME280_temperature;BME280_humidity;BME280_pressure;Samples;Min_cycle;Max_cycle;Signal;HPM_P1;HPM_P2
2023/10/06 00:00:40;;;;;;;11.40;9.25;;;;;;;25.03;52.17;99444.69;2091477;28;21076;-66
2023/10/06 00:01:42;;;;;;;11.95;8.85;;;;;;;25.02;51.76;99447.59;2096781;28;20068;-64
2023/10/06 00:02:44;;;;;;;12.65;9.43;;;;;;;25.01;52.29;99449.50;2095710;28;20060;-65
2023/10/06 00:03:46;;;;;;;11.65;8.70;;;;;;;25.02;51.86;99448.47;2096501;28;20505;-65
2023/10/06 00:04:47;;;;;;;12.95;8.60;;;;;;;25.02;52.17;99451.19;2096126;28;20431;-65
2023/10/06 00:05:49;;;;;;;9.95;8.55;;;;;;;25.05;52.11;99458.03;2096861;28;20076;-66
2023/10/06 00:06:50;;;;;;;11.30;9.55;;;;;;;25.04;51.75;99454.47;2097165;28;20056;-65
2023/10/06 00:07:53;;;;;;;9.82;8.65;;;;;;;25.04;52.00;99454.47;2095561;28;20040;-65
2023/10/06 00:08:57;;;;;;;11.88;9.00;;;;;;;25.03;51.78;99450.09;2095699;28;20467;-66
2023/10/06 00:09:59;;;;;;;11.73;9.30;;;;;;;25.03;51.66;99446.56;2099489;27;20054;-66
2023/10/06 00:11:11;;;;;;;11.65;8.90;;;;;;;25.04;52.04;99448.22;2100576;27;20445;-66
2023/10/06 00:12:16;;;;;;;11.30;9.75;;;;;;;25.02;51.66;99445.75;2103290;28;20524;-66
2023/10/06 00:13:19;;;;;;;13.50;10.43;;;;;;;25.03;51.83;99441.13;2103793;27;20060;-65
2023/10/06 00:14:38;;;;;;;15.15;9.73;;;;;;;25.03;51.98;99435.72;2104791;28;20060;-66
2023/10/06 00:15:39;;;;;;;16.45;9.88;;;;;;;25.02;52.06;99439.47;2107545;28;21389;-65
2023/10/06 00:16:41;;;;;;;11.48;8.40;;;;;;;25.02;52.15;99447.59;2105075;27;20051;-66
2023/10/06 00:17:48;;;;;;;10.40;8.07;;;;;;;25.03;51.65;99449.28;2104233;28;20051;-66
2023/10/06 00:18:52;;;;;;;10.35;8.95;;;;;;;25.02;51.61;99451.19;2103265;27;20041;-66
2023/10/06 00:19:56;;;;;;;10.27;8.68;;;;;;;25.03;51.89;99457.44;2096918;28;20418;-66
2023/10/06 00:21:04;;;;;;;10.68;9.20;;;;;;;25.02;51.66;99451.19;2098247;28;20083;-66
2023/10/06 00:22:13;;;;;;;13.73;9.85;;;;;;;25.02;51.99;99453.03;2093233;28;20047;-65
2023/10/06 00:23:14;;;;;;;12.75;9.48;;;;;;;25.00;51.65;99453.28;2105707;28;20046;-65
2023/10/06 00:24:17;;;;;;;10.38;9.25;;;;;;;25.02;51.84;99444.88;2102514;27;20733;-65
2023/10/06 00:25:24;;;;;;;13.02;9.50;;;;;;;25.05;51.63;99441.75;2101442;28;20134;-66
2023/10/06 00:26:26;;;;;;;10.32;8.45;;;;;;;25.02;51.91;99440.31;2105501;27;20083;-65
2023/10/06 00:27:29;;;;;;;9.45;8.55;;;;;;;25.03;51.72;99441.97;2108396;28;20051;-64
2023/10/06 00:28:32;;;;;;;11.32;9.10;;;;;;;25.03;51.73;99435.72;2103524;28;20067;-65
2023/10/06 00:29:36;;;;;;;10.07;9.07;;;;;;;25.03;51.33;99444.69;2100758;28;20091;-65
2023/10/06 00:30:38;;;;;;;15.45;9.75;;;;;;;25.02;51.49;99451.19;2105923;28;20050;-65
2023/10/06 00:31:40;;;;;;;11.05;9.10;;;;;;;25.02;51.37;99445.75;2105125;28;20100;-66
2023/10/06 00:32:42;;;;;;;14.35;10.77;;;;;;;25.02;51.99;99442.19;2109338;28;20472;-65
2023/10/06 00:33:44;;;;;;;12.48;9.25;;;;;;;25.02;51.64;99437.59;2103429;28;20075;-65
2023/10/06 00:34:47;;;;;;;11.20;8.50;;;;;;;25.03;51.71;99436.53;2097334;27;20044;-66
2023/10/06 00:35:48;;;;;;;11.05;8.80;;;;;;;25.03;51.43;99441.97;2094907;28;20062;-64
2023/10/06 00:36:51;;;;;;;10.30;8.63;;;;;;;25.03;51.51;99439.25;2093018;28;20048;-66
2023/10/06 00:37:57;;;;;;;9.65;8.40;;;;;;;25.04;51.25;99431.94;2097828;28;20510;-66
2023/10/06 00:38:59;;;;;;;10.75;9.18;;;;;;;25.03;51.28;99427.56;2096877;28;20047;-66
2023/10/06 00:40:00;;;;;;;10.85;9.40;;;;;;;25.02;51.74;99432.19;2097255;28;20522;-65
2023/10/06 00:41:06;;;;;;;13.00;9.43;;;;;;;25.03;51.70;99425.69;2095720;28;20044;-66
2023/10/06 00:42:07;;;;;;;9.68;8.55;;;;;;;25.02;51.81;99426.75;2106138;28;20039;-64
2023/10/06 00:43:15;;;;;;;10.82;8.82;;;;;;;25.04;51.61;99424.59;2105361;28;20489;-65
2023/10/06 00:44:21;;;;;;;10.73;8.95;;;;;;;25.00;51.59;99420.72;2093428;28;20056;-65
2023/10/06 00:45:24;;;;;;;10.43;8.77;;;;;;;25.01;51.67;99418.81;2095032;28;20052;-66
2023/10/06 00:46:26;;;;;;;10.38;8.40;;;;;;;25.01;51.65;99426.97;2103472;27;20048;-66
2023/10/06 00:47:38;;;;;;;11.23;9.38;;;;;;;25.03;51.28;99427.56;2103226;28;20048;-65
2023/10/06 00:48:41;;;;;;;11.82;9.95;;;;;;;25.02;51.49;99432.19;2104359;28;20059;-64
2023/10/06 00:49:43;;;;;;;11.48;8.63;;;;;;;25.01;51.71;99435.09;2107096;28;20055;-66
2023/10/06 00:50:44;;;;;;;10.60;9.07;;;;;;;25.03;51.73;99433.81;2104929;28;20127;-64
2023/10/06 00:51:48;;;;;;;10.32;9.30;;;;;;;25.03;51.52;99431.09;2106765;27;20544;-66
2023/10/06 00:52:50;;;;;;;11.38;9.43;;;;;;;25.04;51.44;99434.66;2105343;28;20090;-66
2023/10/06 00:53:56;;;;;;;12.32;8.93;;;;;;;25.04;51.23;99435.47;2103279;28;20051;-66
2023/10/06 00:54:58;;;;;;;10.45;9.35;;;;;;;25.04;51.23;99440.91;2105285;28;20047;-66
2023/10/06 00:56:08;;;;;;;11.77;8.45;;;;;;;25.02;51.54;99439.47;2105011;28;20702;-65
2023/10/06 00:57:12;;;;;;;10.68;8.20;;;;;;;25.02;51.49;99437.59;2106624;28;20092;-66
2023/10/06 00:58:16;;;;;;;8.98;7.78;;;;;;;25.02;51.49;99440.31;2105194;28;20127;-66
2023/10/06 00:59:18;;;;;;;9.63;8.63;;;;;;;25.02;51.42;99434.88;2105517;28;20187;-65
2023/10/06 01:00:20;;;;;;;10.90;8.82;;;;;;;25.02;51.27;99437.59;2102410;27;20059;-65
2023/10/06 01:01:22;;;;;;;10.40;8.82;;;;;;;25.02;51.76;99444.88;2107274;28;20434;-65
2023/10/06 01:02:23;;;;;;;9.90;9.00;;;;;;;25.00;51.43;99442.41;2105857;27;20518;-66
2023/10/06 01:03:25;;;;;;;11.25;10.05;;;;;;;25.03;51.89;99435.72;2103820;28;20097;-66
2023/10/06 01:04:34;;;;;;;11.63;9.32;;;;;;;25.02;51.40;99434.88;2107217;28;22574;-66
2023/10/06 01:05:35;;;;;;;11.52;9.35;;;;;;;25.00;51.72;99431.56;2106803;28;20163;-65
2023/10/06 01:06:38;;;;;;;11.50;9.43;;;;;;;25.00;51.82;99431.56;2103986;27;20491;-64
2023/10/06 01:07:40;;;;;;;11.57;10.00;;;;;;;24.99;51.93;99429.91;2105150;28;20055;-64
2023/10/06 01:08:45;;;;;;;11.30;10.13;;;;;;;25.02;51.74;99425.91;2104401;28;20055;-65
2023/10/06 01:09:56;;;;;;;11.60;8.45;;;;;;;25.00;51.57;99428.03;2101062;27;20060;-65
2023/10/06 01:11:11;;;;;;;10.88;8.63;;;;;;;24.97;51.72;99426.59;2100202;28;20735;-65
2023/10/06 01:12:17;;;;;;;9.85;8.55;;;;;;;25.00;51.45;99426.13;2104148;28;20036;-65
2023/10/06 01:13:22;;;;;;;11.00;9.25;;;;;;;24.97;51.38;99429.31;2102369;28;20055;-65
2023/10/06 01:14:25;;;;;;;9.68;8.32;;;;;;;25.01;51.68;99429.69;2101349;28;20052;-66
2023/10/06 01:15:29;;;;;;;13.77;9.55;;;;;;;25.00;51.41;99428.84;2101208;28;20097;-65
2023/10/06 01:16:34;;;;;;;9.70;8.63;;;;;;;25.01;51.67;99419.63;2104949;28;20051;-66
2023/10/06 01:17:36;;;;;;;11.48;8.85;;;;;;;25.01;51.77;99424.25;2105075;28;20484;-66
2023/10/06 01:18:41;;;;;;;9.80;7.85;;;;;;;25.00;51.42;99428.84;2105161;28;20566;-65
2023/10/06 01:19:49;;;;;;;9.88;8.38;;;;;;;25.02;51.50;99428.59;2103596;28;20555;-65
2023/10/06 01:20:50;;;;;;;13.02;8.52;;;;;;;25.01;51.45;99430.50;2103568;27;20095;-65
2023/10/06 01:21:53;;;;;;;13.07;9.45;;;;;;;25.00;51.53;99428.03;2105274;28;20051;-66
2023/10/06 01:22:56;;;;;;;10.55;9.10;;;;;;;25.02;51.66;99420.47;2103184;28;20052;-65
2023/10/06 01:23:58;;;;;;;9.32;8.35;;;;;;;25.02;51.46;99434.88;2102575;28;20063;-64
2023/10/06 01:25:04;;;;;;;10.23;8.63;;;;;;;24.99;51.92;99421.78;2101848;28;20063;-66
2023/10/06 01:26:04;;;;;;;11.30;8.73;;;;;;;25.00;51.60;99418.00;2102509;28;20112;-64
2023/10/06 01:27:06;;;;;;;11.68;8.88;;;;;;;25.01;51.36;99426.97;2105053;28;20479;-66
2023/10/06 01:28:12;;;;;;;9.55;8.55;;;;;;;25.03;51.43;99425.69;2105195;28;20135;-65
2023/10/06 01:29:14;;;;;;;9.38;8.43;;;;;;;25.02;51.31;99431.31;2103474;28;20047;-64
2023/10/06 01:30:17;;;;;;;10.27;9.18;;;;;;;25.00;51.72;99428.84;2096342;28;21213;-63
2023/10/06 01:31:19;;;;;;;11.07;9.30;;;;;;;25.01;51.69;99424.25;2093215;28;20048;-65
2023/10/06 01:32:20;;;;;;;10.77;7.75;;;;;;;25.01;51.62;99426.97;2097573;28;20048;-65
2023/10/06 01:33:23;;;;;;;13.15;9.88;;;;;;;25.01;51.81;99421.53;2096333;28;20542;-66
2023/10/06 01:34:24;;;;;;;12.80;9.18;;;;;;;25.01;51.58;99407.97;2091045;28;20051;-64
2023/10/06 01:35:26;;;;;;;10.63;9.05;;;;;;;25.01;51.29;99407.97;2096790;28;20080;-66
2023/10/06 01:36:30;;;;;;;12.02;9.20;;;;;;;25.00;51.28;99409.84;2097145;28;20648;-65
2023/10/06 01:37:32;;;;;;;9.63;8.68;;;;;;;25.01;51.81;99410.66;2098401;27;20618;-65
2023/10/06 01:38:36;;;;;;;14.25;9.30;;;;;;;25.03;51.78;99412.09;2103847;28;20105;-64
2023/10/06 01:39:40;;;;;;;10.75;8.93;;;;;;;25.01;51.83;99407.97;2104319;27;20043;-65
2023/10/06 01:40:43;;;;;;;10.50;8.70;;;;;;;25.00;51.36;99412.56;2106365;27;20079;-66
2023/10/06 01:41:48;;;;;;;10.15;8.48;;;;;;;25.01;51.65;99413.38;2103450;28;20079;-66
2023/10/06 01:42:49;;;;;;;10.57;9.02;;;;;;;25.02;51.68;99415.88;2107795;27;20043;-64
2023/10/06 01:43:51;;;;;;;9.23;7.82;;;;;;;25.03;51.35;99412.09;2103297;27;20047;-66
2023/10/06 01:44:52;;;;;;;11.32;8.48;;;;;;;25.03;51.71;99411.28;2097472;27;20411;-65
2023/10/06 01:45:54;;;;;;;11.18;8.77;;;;;;;25.00;51.51;99409.84;2094537;28;20127;-66
2023/10/06 01:46:54;;;;;;;9.82;8.80;;;;;;;25.03;51.38;99411.28;2093456;28;20418;-66
2023/10/06 01:48:04;;;;;;;10.13;8.55;;;;;;;25.03;51.43;99414.81;2098727;27;20127;-65
2023/10/06 01:49:08;;;;;;;9.85;7.78;;;;;;;25.02;51.65;99405.03;2100194;27;20058;-65
2023/10/06 01:50:11;;;;;;;10.25;8.73;;;;;;;25.00;51.85;99409.84;2105392;28;21946;-65
2023/10/06 01:51:15;;;;;;;9.23;7.47;;;;;;;25.01;51.83;99414.22;2104395;27;20051;-66
2023/10/06 01:52:19;;;;;;;9.07;8.18;;;;;;;25.01;51.22;99411.50;2093074;28;20044;-65
2023/10/06 01:53:20;;;;;;;9.43;8.40;;;;;;;25.02;51.20;99405.03;2103735;28;20051;-65
2023/10/06 01:54:27;;;;;;;10.07;9.05;;;;;;;25.03;51.62;99401.25;2107833;28;20396;-66
2023/10/06 01:55:28;;;;;;;8.77;7.70;;;;;;;25.02;51.25;99402.31;2104384;27;20044;-65
2023/10/06 01:56:31;;;;;;;9.48;8.18;;;;;;;25.05;51.10;99404.56;2099822;27;20058;-65
2023/10/06 01:57:31;;;;;;;10.30;8.43;;;;;;;25.03;51.25;99412.09;2105132;28;20612;-66
2023/10/06 01:58:32;;;;;;;9.25;8.32;;;;;;;25.01;51.58;99410.66;2105101;28;20139;-65
2023/10/06 01:59:34;;;;;;;9.38;8.45;;;;;;;25.02;51.68;99412.31;2105408;27;20477;-65
2023/10/06 02:00:36;;;;;;;9.20;8.23;;;;;;;25.02;51.48;99413.19;2105980;28;21180;-65
2023/10/06 02:01:39;;;;;;;10.80;8.30;;;;;;;25.00;51.85;99409.84;2104410;27;20051;-65
2023/10/06 02:02:40;;;;;;;9.38;8.48;;;;;;;24.99;51.50;99405.50;2106628;28;20085;-66
2023/10/06 02:03:42;;;;;;;9.30;8.30;;;;;;;25.00;51.80;99407.13;2105196;28;20562;-65
2023/10/06 02:04:45;;;;;;;9.93;8.85;;;;;;;25.00;51.36;99407.13;2105891;28;20043;-65
2023/10/06 02:05:45;;;;;;;13.35;8.73;;;;;;;25.01;51.77;99405.25;2104932;27;20112;-66
2023/10/06 02:06:48;;;;;;;10.43;8.80;;;;;;;25.00;51.39;99406.31;2103312;28;20499;-65
2023/10/06 02:07:49;;;;;;;10.65;8.85;;;;;;;24.99;51.45;99400.06;2104827;28;20082;-65
2023/10/06 02:08:52;;;;;;;10.38;8.25;;;;;;;24.98;51.76;99403.81;2104951;27;20040;-64
2023/10/06 02:09:54;;;;;;;8.93;7.88;;;;;;;24.99;51.56;99410.91;2105326;28;20067;-66
2023/10/06 02:10:55;;;;;;;10.93;8.75;;;;;;;24.98;51.82;99407.34;2100087;28;20918;-66
2023/10/06 02:11:57;;;;;;;9.05;8.15;;;;;;;24.97;51.97;99405.69;2105220;27;20123;-65
2023/10/06 02:12:58;;;;;;;10.07;8.18;;;;;;;24.98;51.82;99403.81;2102608;27;20131;-66
2023/10/06 02:14:00;;;;;;;9.13;8.13;;;;;;;24.98;51.88;99399.22;2101836;27;20081;-65
2023/10/06 02:15:03;;;;;;;9.77;8.60;;;;;;;25.00;51.79;99407.13;2100448;28;20043;-65
2023/10/06 02:16:10;;;;;;;12.55;8.93;;;;;;;24.97;51.72;99410.31;2104516;28;20177;-66
2023/10/06 02:17:11;;;;;;;9.30;8.27;;;;;;;24.98;51.63;99401.91;2108550;28;20050;-66
2023/10/06 02:18:13;;;;;;;9.65;8.13;;;;;;;25.00;51.45;99409.03;2106261;27;20489;-64
2023/10/06 02:19:16;;;;;;;9.73;7.60;;;;;;;24.98;51.50;99401.91;2104279;27;20043;-65
2023/10/06 02:20:29;;;;;;;9.27;8.32;;;;;;;24.96;52.13;99400.50;2104715;27;20048;-65
2023/10/06 02:21:30;;;;;;;10.15;8.50;;;;;;;24.94;52.35;99405.34;2099999;27;20517;-64
2023/10/06 02:22:32;;;;;;;11.98;10.05;;;;;;;24.94;51.83;99400.72;2103471;28;20059;-64
2023/10/06 02:23:37;;;;;;;11.02;8.77;;;;;;;24.97;52.29;99404.88;2101709;28;20052;-65
2023/10/06 02:24:39;;;;;;;9.75;8.63;;;;;;;24.95;51.87;99410.53;2103484;27;20498;-65
2023/10/06 02:25:41;;;;;;;12.35;9.65;;;;;;;24.96;51.73;99401.34;2103049;27;20813;-66
2023/10/06 02:26:44;;;;;;;10.15;8.20;;;;;;;24.97;51.80;99407.59;2104366;27;20577;-65
2023/10/06 02:27:47;;;;;;;10.90;8.50;;;;;;;24.98;52.12;99409.25;2102213;27;20107;-65
2023/10/06 02:28:49;;;;;;;10.38;9.07;;;;;;;24.98;51.93;99409.25;2103567;28;20051;-66
2023/10/06 02:29:50;;;;;;;10.18;8.07;;;;;;;24.97;52.14;99407.59;2104772;28;20112;-66
2023/10/06 02:30:55;;;;;;;9.98;8.98;;;;;;;24.96;52.11;99409.47;2100745;27;20047;-66
2023/10/06 02:32:00;;;;;;;11.80;9.13;;;;;;;24.97;52.01;99407.59;2104622;28;20071;-65
2023/10/06 02:33:03;;;;;;;11.20;8.55;;;;;;;24.95;52.00;99407.81;2105883;28;20074;-66
2023/10/06 02:34:12;;;;;;;9.88;8.73;;;;;;;24.97;51.80;99404.88;2108121;27;20538;-64
2023/10/06 02:35:17;;;;;;;9.65;8.63;;;;;;;24.97;51.67;99396.75;2102744;28;20138;-65
2023/10/06 02:36:18;;;;;;;10.15;8.65;;;;;;;24.97;51.65;99404.88;2104724;28;20101;-65
2023/10/06 02:37:23;;;;;;;9.52;8.23;;;;;;;24.98;51.76;99403.81;2105582;28;20082;-65
2023/10/06 02:38:28;;;;;;;9.25;8.35;;;;;;;24.99;52.09;99405.50;2103246;27;20048;-66
2023/10/06 02:39:33;;;;;;;10.05;8.45;;;;;;;24.97;51.68;99403.00;2102013;27;20051;-66
2023/10/06 02:40:43;;;;;;;10.98;9.05;;;;;;;24.99;51.61;99405.50;2100593;28;21392;-65
2023/10/06 02:41:47;;;;;;;10.30;9.02;;;;;;;25.01;51.80;99407.97;2102425;28;20044;-66
2023/10/06 02:42:52;;;;;;;10.85;8.57;;;;;;;25.00;51.69;99401.72;2101254;28;20047;-66
2023/10/06 02:43:55;;;;;;;9.30;8.10;;;;;;;25.00;51.73;99409.84;2101298;27;20051;-65
2023/10/06 02:44:57;;;;;;;10.68;8.23;;;;;;;24.97;51.79;99407.59;2102756;27;20044;-66
2023/10/06 02:46:04;;;;;;;10.63;8.82;;;;;;;24.96;51.96;99405.91;2101348;28;20056;-65
2023/10/06 02:47:09;;;;;;;9.55;8.50;;;;;;;24.96;51.79;99400.50;2100397;28;20047;-66
2023/10/06 02:48:17;;;;;;;10.73;8.55;;;;;;;24.95;51.85;99398.84;2101909;27;21177;-65
2023/10/06 02:49:24;;;;;;;12.65;9.32;;;;;;;24.94;52.31;99406.16;2102393;27;20101;-64
2023/10/06 02:50:25;;;;;;;10.38;8.80;;;;;;;24.95;52.04;99404.28;2106406;27;20043;-65
2023/10/06 02:51:30;;;;;;;11.20;8.93;;;;;;;24.94;51.95;99406.16;2102242;28;21032;-64
2023/10/06 02:52:37;;;;;;;9.30;8.25;;;;;;;24.96;52.16;99403.19;2105189;27;20050;-66
2023/10/06 02:53:39;;;;;;;9.82;8.35;;;;;;;24.95;51.79;99407.81;2103935;27;20062;-65
2023/10/06 02:54:45;;;;;;;9.73;8.73;;;;;;;24.96;51.64;99405.91;2099474;27;20051;-64
2023/10/06 02:55:48;;;;;;;11.25;9.25;;;;;;;24.95;51.74;99412.41;2101243;27;20043;-65
2023/10/06 02:56:55;;;;;;;10.77;8.27;;;;;;;24.93;52.21;99407.22;2100055;27;20711;-65
2023/10/06 02:57:56;;;;;;;8.98;8.02;;;;;;;24.96;52.23;99408.63;2103512;27;20397;-66
2023/10/06 02:59:20;;;;;;;11.23;8.90;;;;;;;24.97;52.17;99396.75;2103920;27;20050;-66
2023/10/06 03:00:29;;;;;;;9.95;8.95;;;;;;;24.94;51.67;99408.88;2099382;28;20074;-64
2023/10/06 03:01:31;;;;;;;10.18;9.05;;;;;;;24.94;52.21;99408.06;2100975;28;20059;-65
2023/10/06 03:02:34;;;;;;;9.48;8.48;;;;;;;24.94;52.26;99408.88;2104827;27;20051;-66
2023/10/06 03:03:36;;;;;;;10.70;9.25;;;;;;;24.94;51.92;99402.63;2096563;27;20047;-65
2023/10/06 03:04:39;;;;;;;10.93;8.95;;;;;;;24.95;52.35;99404.28;2106361;28;20055;-65
2023/10/06 03:05:49;;;;;;;10.07;8.70;;;;;;;24.96;52.23;99412.19;2103354;28;20079;-66
2023/10/06 03:06:53;;;;;;;10.77;8.50;;;;;;;24.96;52.23;99411.34;2103157;27;20067;-66
2023/10/06 03:07:55;;;;;;;10.57;8.57;;;;;;;24.94;52.25;99408.88;2099651;28;20043;-65
2023/10/06 03:08:55;;;;;;;11.30;9.45;;;;;;;24.97;51.95;99410.31;2103301;28;20396;-65
2023/10/06 03:09:57;;;;;;;10.38;7.93;;;;;;;24.96;51.93;99409.47;2100546;27;20054;-65
2023/10/06 03:10:59;;;;;;;10.13;8.00;;;;;;;24.96;51.78;99411.34;2099297;27;20104;-64
2023/10/06 03:12:10;;;;;;;11.95;8.70;;;;;;;24.99;51.93;99410.91;2102461;28;20059;-64
2023/10/06 03:13:13;;;;;;;12.23;8.82;;;;;;;24.96;51.77;99409.47;2101453;28;20067;-66
2023/10/06 03:14:15;;;;;;;9.75;8.48;;;;;;;24.98;52.00;99420.09;2102730;28;20063;-65
2023/10/06 03:15:28;;;;;;;9.95;8.68;;;;;;;24.97;51.86;99410.31;2104102;28;20043;-65
2023/10/06 03:16:32;;;;;;;11.25;9.60;;;;;;;24.97;51.32;99410.31;2100884;27;20070;-65
2023/10/06 03:17:34;;;;;;;8.98;7.65;;;;;;;24.95;51.96;99410.53;2100748;27;20055;-64
2023/10/06 03:18:35;;;;;;;11.20;8.73;;;;;;;24.95;51.96;99407.81;2105585;28;21059;-65
2023/10/06 03:19:40;;;;;;;12.13;9.45;;;;;;;24.95;51.89;99409.69;2101875;28;20047;-65
2023/10/06 03:20:46;;;;;;;13.00;8.23;;;;;;;24.94;51.67;99410.75;2105638;28;20048;-66
2023/10/06 03:21:48;;;;;;;12.68;9.05;;;;;;;24.94;52.13;99408.06;2100826;28;20048;-65
2023/10/06 03:22:55;;;;;;;11.13;10.00;;;;;;;24.94;52.24;99419.72;2097258;28;20055;-64
2023/10/06 03:23:58;;;;;;;11.38;9.82;;;;;;;24.92;52.54;99418.28;2104810;28;20506;-64
2023/10/06 03:25:00;;;;;;;12.32;9.38;;;;;;;24.94;52.33;99416.19;2104586;28;20507;-66
2023/10/06 03:26:03;;;;;;;11.68;8.80;;;;;;;24.92;52.24;99419.13;2101239;27;20035;-66
2023/10/06 03:27:12;;;;;;;12.32;9.25;;;;;;;24.94;52.11;99417.00;2103753;28;20044;-64
2023/10/06 03:28:17;;;;;;;11.18;9.13;;;;;;;24.92;52.26;99421.00;2103056;28;20044;-65
2023/10/06 03:29:28;;;;;;;15.13;9.52;;;;;;;24.94;52.16;99425.16;2099941;27;20049;-66
2023/10/06 03:30:34;;;;;;;10.38;9.15;;;;;;;24.94;51.82;99421.63;2107974;28;20051;-64
2023/10/06 03:31:44;;;;;;;12.25;9.90;;;;;;;24.94;52.21;99414.31;2101747;28;20048;-65
2023/10/06 03:32:49;;;;;;;11.75;9.00;;;;;;;24.95;52.07;99420.56;2101958;27;20051;-65
2023/10/06 03:33:54;;;;;;;11.57;10.02;;;;;;;24.95;51.66;99423.25;2104401;28;20550;-65
2023/10/06 03:34:59;;;;;;;10.18;8.20;;;;;;;24.95;52.04;99417.84;2104211;28;20051;-66
2023/10/06 03:36:01;;;;;;;12.88;8.52;;;;;;;24.94;51.89;99416.19;2102353;28;20595;-65
2023/10/06 03:37:04;;;;;;;12.25;8.85;;;;;;;24.93;51.85;99418.09;2103183;27;20112;-64
2023/10/06 03:38:13;;;;;;;11.40;9.57;;;;;;;24.91;51.83;99413.94;2101501;28;20048;-66
2023/10/06 03:39:21;;;;;;;11.73;9.35;;;;;;;24.92;52.27;99421.00;2103820;27;20044;-66
2023/10/06 03:40:24;;;;;;;10.55;8.05;;;;;;;24.91;51.81;99414.75;2105324;28;20054;-65
2023/10/06 03:41:32;;;;;;;9.65;8.60;;;;;;;24.91;52.20;99416.66;2105187;28;20126;-64
2023/10/06 03:42:37;;;;;;;10.43;8.15;;;;;;;24.94;52.19;99416.19;2103408;28;20111;-65
2023/10/06 03:43:40;;;;;;;9.90;8.70;;;;;;;24.92;52.06;99416.41;2099471;27;20134;-65
2023/10/06 03:44:41;;;;;;;14.88;8.50;;;;;;;24.93;52.13;99415.38;2093020;28;20106;-66
2023/10/06 03:45:47;;;;;;;10.55;8.52;;;;;;;24.94;51.96;99416.19;2101883;28;20047;-64
2023/10/06 03:46:48;;;;;;;10.07;9.05;;;;;;;24.94;51.69;99419.72;2106833;28;20043;-64
2023/10/06 03:47:49;;;;;;;10.20;8.73;;;;;;;24.96;51.98;99419.50;2108545;28;20138;-66
2023/10/06 03:48:51;;;;;;;10.75;9.63;;;;;;;24.94;51.77;99417.00;2105541;27;20210;-65
2023/10/06 03:49:54;;;;;;;10.63;8.70;;;;;;;24.93;51.96;99423.50;2107425;27;20035;-66
2023/10/06 03:50:55;;;;;;;9.75;8.55;;;;;;;24.92;52.34;99418.28;2104056;28;20044;-65
2023/10/06 03:51:57;;;;;;;12.13;9.20;;;;;;;24.91;51.93;99416.66;2101291;28;20829;-65
2023/10/06 03:52:58;;;;;;;13.10;9.75;;;;;;;24.92;52.22;99421.00;2103983;28;20063;-64
2023/10/06 03:54:00;;;;;;;10.48;9.40;;;;;;;24.91;52.23;99419.38;2103932;27;20047;-66
2023/10/06 03:55:06;;;;;;;11.88;9.80;;;;;;;24.93;52.18;99419.94;2106009;28;20058;-65
2023/10/06 03:56:08;;;;;;;10.90;8.95;;;;;;;24.92;51.94;99424.53;2105598;28;20074;-65
2023/10/06 03:57:11;;;;;;;12.00;9.57;;;;;;;24.92;52.28;99421.84;2102255;27;20802;-64
2023/10/06 03:58:15;;;;;;;12.93;10.32;;;;;;;24.92;51.77;99421.00;2102061;27;20143;-66
2023/10/06 03:59:17;;;;;;;11.38;9.73;;;;;;;24.92;52.22;99421.00;2100996;28;20139;-66
2023/10/06 04:00:19;;;;;;;12.75;9.15;;;;;;;24.94;52.38;99419.72;2104238;27;21343;-66
2023/10/06 04:01:26;;;;;;;14.18;8.40;;;;;;;24.94;51.72;99419.72;2099251;28;20044;-65
2023/10/06 04:02:27;;;;;;;13.55;9.68;;;;;;;24.95;51.58;99428.69;2101336;27;20043;-64
2023/10/06 04:03:28;;;;;;;10.48;8.43;;;;;;;24.93;51.96;99428.09;2102966;28;20156;-65
2023/10/06 04:04:29;;;;;;;10.65;9.40;;;;;;;24.95;51.62;99420.56;2105372;28;20422;-65
2023/10/06 04:05:37;;;;;;;11.77;9.30;;;;;;;24.95;51.73;99425.97;2104424;27;20051;-65
2023/10/06 04:06:39;;;;;;;13.00;9.88;;;;;;;24.93;52.04;99422.66;2100735;27;20078;-66
2023/10/06 04:07:40;;;;;;;9.48;8.48;;;;;;;24.94;51.90;99432.47;2101072;27;20059;-65
2023/10/06 04:08:45;;;;;;;10.25;8.90;;;;;;;24.94;51.55;99421.63;2102640;28;20058;-65
2023/10/06 04:09:49;;;;;;;12.98;9.88;;;;;;;24.94;52.24;99427.03;2105491;28;20047;-65
2023/10/06 04:10:54;;;;;;;10.63;8.57;;;;;;;24.94;51.77;99421.63;2100443;27;20586;-66
2023/10/06 04:12:00;;;;;;;10.23;8.43;;;;;;;24.93;51.86;99428.09;2105535;28;20043;-66
2023/10/06 04:13:02;;;;;;;11.60;8.80;;;;;;;24.91;52.21;99425.59;2101623;27;20092;-66
2023/10/06 04:14:05;;;;;;;9.85;8.85;;;;;;;24.92;52.26;99426.44;2104074;28;20047;-66
2023/10/06 04:15:08;;;;;;;9.80;8.63;;;;;;;24.93;51.96;99428.09;2101553;28;20540;-65
2023/10/06 04:16:09;;;;;;;9.27;8.32;;;;;;;24.94;51.92;99424.34;2104764;28;20482;-65
2023/10/06 04:17:12;;;;;;;10.93;8.75;;;;;;;24.94;51.82;99422.44;2103134;27;20047;-65
2023/10/06 04:18:16;;;;;;;10.77;9.45;;;;;;;24.93;52.34;99428.94;2101677;27;20506;-65
2023/10/06 04:19:18;;;;;;;14.65;9.38;;;;;;;24.94;51.72;99429.75;2101259;28;20882;-66
2023/10/06 04:20:20;;;;;;;11.32;9.18;;;;;;;24.93;52.05;99428.94;2107604;28;20052;-65
2023/10/06 04:21:24;;;;;;;10.90;9.45;;;;;;;24.94;51.64;99429.75;2100707;28;20051;-64
2023/10/06 04:22:24;;;;;;;12.40;8.93;;;;;;;24.94;51.69;99425.16;2105605;28;20091;-65
2023/10/06 04:23:25;;;;;;;12.32;9.68;;;;;;;24.94;51.87;99427.03;2105932;27;20405;-65
2023/10/06 04:24:27;;;;;;;10.30;9.20;;;;;;;24.95;51.32;99415.13;2102742;27;20498;-66
2023/10/06 04:25:28;;;;;;;10.38;8.25;;;;;;;24.94;51.95;99425.16;2102025;27;20055;-65
2023/10/06 04:26:30;;;;;;;11.63;8.93;;;;;;;24.93;51.88;99422.66;2103340;28;20051;-65
2023/10/06 04:27:32;;;;;;;10.95;9.13;;;;;;;24.94;51.89;99427.03;2101706;27;20050;-66
2023/10/06 04:28:33;;;;;;;13.75;9.73;;;;;;;24.95;51.37;99425.97;2104954;28;20086;-65
2023/10/06 04:29:39;;;;;;;10.13;8.25;;;;;;;24.94;51.57;99430.59;2100824;27;20060;-65
2023/10/06 04:30:42;;;;;;;10.13;8.70;;;;;;;24.93;52.31;99422.66;2092566;28;20052;-65
2023/10/06 04:31:45;;;;;;;11.68;9.52;;;;;;;24.93;51.74;99422.66;2098331;28;20058;-65
2023/10/06 04:32:46;;;;;;;12.82;9.48;;;;;;;24.92;51.90;99431.88;2100606;28;20044;-65
2023/10/06 04:33:50;;;;;;;14.10;9.40;;;;;;;24.91;52.11;99425.59;2101941;28;20167;-66
2023/10/06 04:34:51;;;;;;;11.68;10.45;;;;;;;24.91;51.81;99422.06;2106724;28;20047;-66
2023/10/06 04:35:55;;;;;;;11.85;8.80;;;;;;;24.91;51.81;99420.19;2103554;28;20112;-65
2023/10/06 04:36:57;;;;;;;10.35;9.25;;;;;;;24.91;52.25;99430.22;2097673;27;20060;-64
2023/10/06 04:37:59;;;;;;;10.32;9.27;;;;;;;24.93;51.78;99419.94;2106371;27;20054;-65
2023/10/06 04:38:59;;;;;;;12.38;10.65;;;;;;;24.91;52.25;99424.78;2103462;28;20071;-65
2023/10/06 04:40:02;;;;;;;11.20;9.43;;;;;;;24.91;51.74;99424.78;2106410;27;20039;-66
2023/10/06 04:41:03;;;;;;;10.50;9.40;;;;;;;24.91;52.18;99424.78;2099895;28;20075;-65
2023/10/06 04:42:05;;;;;;;11.55;8.85;;;;;;;24.93;51.54;99428.09;2104086;28;20518;-64
2023/10/06 04:43:06;;;;;;;9.98;8.80;;;;;;;24.93;51.63;99425.38;2103664;27;20055;-66
2023/10/06 04:44:08;;;;;;;11.88;8.82;;;;;;;24.93;51.85;99422.66;2101850;27;21024;-65
2023/10/06 04:45:12;;;;;;;12.60;10.05;;;;;;;24.94;51.65;99424.34;2106475;28;20434;-65
2023/10/06 04:46:15;;;;;;;10.88;9.25;;;;;;;24.94;52.12;99427.03;2103813;28;20094;-65
2023/10/06 04:47:16;;;;;;;10.50;9.07;;;;;;;24.94;52.20;99422.44;2099574;28;20051;-65
2023/10/06 04:48:18;;;;;;;11.85;9.05;;;;;;;24.93;51.77;99423.50;2097475;28;20105;-65
2023/10/06 04:49:20;;;;;;;15.57;10.63;;;;;;;24.91;52.29;99432.94;2096245;28;20059;-65
2023/10/06 04:50:21;;;;;;;12.73;9.80;;;;;;;24.91;52.20;99430.22;2097367;28;21233;-65
2023/10/06 04:51:26;;;;;;;13.45;9.77;;;;;;;24.93;51.80;99428.09;2094613;28;20151;-66
2023/10/06 04:52:27;;;;;;;13.15;9.60;;;;;;;24.92;51.64;99424.53;2091267;28;20052;-65
2023/10/06 04:53:29;;;;;;;10.57;9.48;;;;;;;24.91;51.52;99425.59;2094478;28;20353;-65
2023/10/06 04:54:30;;;;;;;11.15;9.63;;;;;;;24.94;51.64;99427.03;2098817;28;20043;-66
2023/10/06 04:55:31;;;;;;;14.43;9.68;;;;;;;24.92;52.25;99429.97;2095308;28;20062;-65
2023/10/06 04:56:33;;;;;;;11.43;8.35;;;;;;;24.92;51.84;99427.25;2094229;28;20074;-65